Time;durP1;ratioP1;P1;durP2;ratioP2;P2;SDS_P1;SDS_P2;PMS_P1;PMS_P2;Temp;Humidity;BMP_temperature;BMP_pressure;BME280_temperature;BME280_humidity;BME280_pressure;Samples;Min_cycle;Max_cycle;Signal;HPM_P1;HPM_P2
2021/07/10 00:01:30;;;;;;;3.00;1.77;;;;;;;;;;5057574;28;20060;-78
2021/07/10 00:03:56;;;;;;;2.90;1.70;;;;;;;;;;5058757;28;20072;-73
2021/07/10 00:06:23;;;;;;;2.38;1.40;;;;;;;;;;5058580;28;20068;-74
2021/07/10 00:08:49;;;;;;;3.25;1.60;;;;;;;;;;5055518;28;20063;-73
2021/07/10 00:11:15;;;;;;;2.20;1.40;;;;;;;;;;5055906;28;20432;-72
2021/07/10 00:13:42;;;;;;;1.83;1.30;;;;;;;;;;5058334;28;20064;-73
2021/07/10 00:16:10;;;;;;;2.15;1.45;;;;;;;;;;5053363;28;20064;-74
2021/07/10 00:18:36;;;;;;;1.85;1.30;;;;;;;;;;5059166;28;20060;-75
2021/07/10 00:21:03;;;;;;;2.38;1.33;;;;;;;;;;5060025;28;20492;-74
2021/07/10 00:23:29;;;;;;;2.53;1.63;;;;;;;;;;5056000;28;20460;-74
2021/07/10 00:25:56;;;;;;;2.92;1.73;;;;;;;;;;5054320;28;20852;-74
2021/07/10 00:28:22;;;;;;;2.90;1.92;;;;;;;;;;5053927;28;20052;-74
2021/07/10 00:30:49;;;;;;;2.83;2.17;;;;;;;;;;5063402;28;20056;-74
2021/07/10 00:33:15;;;;;;;4.38;2.00;;;;;;;;;;5061703;28;20114;-74
2021/07/10 00:35:41;;;;;;;3.00;1.83;;;;;;;;;;5060644;28;20057;-75
2021/07/10 00:38:08;;;;;;;2.97;1.88;;;;;;;;;;5056546;28;20056;-74
2021/07/10 00:40:34;;;;;;;3.45;2.17;;;;;;;;;;5034596;28;20472;-74
2021/07/10 00:43:02;;;;;;;2.10;1.55;;;;;;;;;;5064779;28;20063;-73
2021/07/10 00:45:28;;;;;;;3.50;1.63;;;;;;;;;;5054660;28;20097;-74
2021/07/10 00:47:55;;;;;;;2.90;1.90;;;;;;;;;;5053999;28;20106;-73
2021/07/10 00:50:22;;;;;;;3.25;1.77;;;;;;;;;;5058072;28;20059;-73
2021/07/10 00:52:49;;;;;;;3.53;2.08;;;;;;;;;;5057731;28;20060;-73
2021/07/10 00:55:17;;;;;;;2.85;1.52;;;;;;;;;;5059164;28;20068;-73
2021/07/10 00:57:44;;;;;;;2.80;1.73;;;;;;;;;;5052064;28;20033;-74
2021/07/10 01:00:12;;;;;;;2.38;1.80;;;;;;;;;;5061027;28;20067;-74
2021/07/10 01:02:42;;;;;;;2.72;1.80;;;;;;;;;;5064297;28;20024;-74
2021/07/10 01:05:10;;;;;;;3.30;1.77;;;;;;;;;;5058220;28;20076;-74
2021/07/10 01:07:36;;;;;;;3.70;1.42;;;;;;;;;;5055355;28;20048;-75
2021/07/10 01:10:03;;;;;;;3.10;1.67;;;;;;;;;;5052613;28;20063;-73
2021/07/10 01:12:33;;;;;;;2.53;1.70;;;;;;;;;;5060123;28;20072;-73
2021/07/10 01:14:59;;;;;;;2.47;1.80;;;;;;;;;;5034552;28;20061;-74
2021/07/10 01:17:25;;;;;;;2.30;1.70;;;;;;;;;;5063773;28;20499;-74
2021/07/10 01:19:59;;;;;;;2.72;1.77;;;;;;;;;;5063516;28;20101;-73
2021/07/10 01:22:26;;;;;;;2.63;1.63;;;;;;;;;;5056028;28;20072;-73
2021/07/10 01:24:53;;;;;;;2.92;1.70;;;;;;;;;;5058601;28;20064;-73
2021/07/10 01:27:19;;;;;;;1.88;1.52;;;;;;;;;;5060911;28;20059;-72
2021/07/10 01:29:48;;;;;;;2.40;1.80;;;;;;;;;;5053745;28;20075;-72
2021/07/10 01:32:18;;;;;;;3.08;1.58;;;;;;;;;;5059337;28;20060;-73
2021/07/10 01:34:48;;;;;;;2.55;1.50;;;;;;;;;;5060401;28;20141;-73
2021/07/10 01:37:17;;;;;;;4.47;1.67;;;;;;;;;;5056147;28;20079;-73
2021/07/10 01:39:44;;;;;;;2.15;1.48;;;;;;;;;;5060322;28;20052;-72
2021/07/10 01:42:11;;;;;;;2.38;1.50;;;;;;;;;;5056743;28;20524;-72
2021/07/10 01:44:38;;;;;;;3.47;1.67;;;;;;;;;;5059023;28;20072;-73
2021/07/10 01:47:05;;;;;;;1.73;1.35;;;;;;;;;;5066287;28;20060;-73
2021/07/10 01:49:32;;;;;;;3.03;1.60;;;;;;;;;;5061952;28;20106;-74
2021/07/10 01:51:58;;;;;;;4.15;1.63;;;;;;;;;;5064423;28;20056;-73
2021/07/10 01:54:25;;;;;;;1.77;1.40;;;;;;;;;;5041706;28;20127;-73
2021/07/10 01:56:52;;;;;;;2.78;1.75;;;;;;;;;;5039149;28;20065;-74
2021/07/10 01:59:19;;;;;;;2.42;1.40;;;;;;;;;;5058382;28;20068;-73
2021/07/10 02:01:49;;;;;;;3.08;1.50;;;;;;;;;;5056922;28;20067;-74
2021/07/10 02:04:18;;;;;;;3.90;1.70;;;;;;;;;;5035436;28;20486;-72
2021/07/10 02:06:48;;;;;;;3.13;1.40;;;;;;;;;;5059431;28;20156;-73
2021/07/10 02:09:14;;;;;;;3.13;1.67;;;;;;;;;;5054222;28;20064;-73
2021/07/10 02:11:50;;;;;;;3.60;1.40;;;;;;;;;;5056896;28;20056;-73
2021/07/10 02:14:18;;;;;;;2.97;1.70;;;;;;;;;;5062804;28;20064;-74
2021/07/10 02:16:45;;;;;;;3.67;1.63;;;;;;;;;;5048974;28;20040;-74
2021/07/10 02:19:15;;;;;;;2.40;1.52;;;;;;;;;;5057447;28;20424;-73
2021/07/10 02:21:41;;;;;;;2.33;1.50;;;;;;;;;;5048856;28;20065;-73
2021/07/10 02:24:08;;;;;;;2.45;1.50;;;;;;;;;;5055063;28;20064;-73
2021/07/10 02:26:35;;;;;;;2.55;1.50;;;;;;;;;;5037685;28;20040;-73
2021/07/10 02:29:02;;;;;;;2.05;1.40;;;;;;;;;;5051730;28;20082;-73
2021/07/10 02:31:28;;;;;;;2.70;1.70;;;;;;;;;;5060415;28;20053;-73
2021/07/10 02:33:55;;;;;;;3.10;1.50;;;;;;;;;;5060167;28;20119;-73
2021/07/10 02:36:21;;;;;;;3.03;1.83;;;;;;;;;;5056445;28;20064;-73
2021/07/10 02:38:48;;;;;;;2.83;1.60;;;;;;;;;;5060715;28;20480;-73
2021/07/10 02:41:14;;;;;;;2.42;1.30;;;;;;;;;;5060557;28;20484;-73
2021/07/10 02:43:40;;;;;;;2.25;1.60;;;;;;;;;;5060245;28;20485;-73
2021/07/10 02:46:08;;;;;;;2.20;1.60;;;;;;;;;;5048468;28;20075;-72
2021/07/10 02:48:34;;;;;;;1.90;1.60;;;;;;;;;;5065340;28;20191;-73
2021/07/10 02:51:00;;;;;;;2.10;1.60;;;;;;;;;;5055146;28;20068;-73
2021/07/10 02:53:27;;;;;;;3.13;1.67;;;;;;;;;;5044225;28;20063;-73
2021/07/10 02:55:53;;;;;;;2.97;1.58;;;;;;;;;;5061213;28;20063;-73
2021/07/10 02:58:20;;;;;;;2.05;1.50;;;;;;;;;;5059176;28;20067;-74
2021/07/10 03:00:46;;;;;;;2.03;1.52;;;;;;;;;;5055958;28;20067;-72
2021/07/10 03:03:13;;;;;;;2.47;1.58;;;;;;;;;;5044145;28;20057;-73
2021/07/10 03:05:39;;;;;;;2.65;1.42;;;;;;;;;;5063533;28;20060;-73
2021/07/10 03:08:05;;;;;;;3.15;1.73;;;;;;;;;;5065811;28;20067;-72
2021/07/10 03:10:32;;;;;;;2.38;1.48;;;;;;;;;;5057054;28;20040;-73
2021/07/10 03:12:59;;;;;;;2.05;1.63;;;;;;;;;;5063080;28;20056;-73
2021/07/10 03:15:26;;;;;;;1.98;1.65;;;;;;;;;;5043308;28;20057;-72
2021/07/10 03:17:52;;;;;;;2.92;1.55;;;;;;;;;;5061490;28;20064;-73
2021/07/10 03:20:21;;;;;;;3.20;1.58;;;;;;;;;;5059821;28;20432;-72
2021/07/10 03:22:47;;;;;;;2.58;1.60;;;;;;;;;;5047760;28;20063;-73
2021/07/10 03:25:14;;;;;;;2.30;1.70;;;;;;;;;;5061889;28;20076;-74
2021/07/10 03:27:41;;;;;;;3.45;1.65;;;;;;;;;;5051015;28;20056;-73
2021/07/10 03:30:09;;;;;;;3.42;1.60;;;;;;;;;;5059984;28;20072;-72
2021/07/10 03:32:35;;;;;;;3.13;1.65;;;;;;;;;;5057647;28;20547;-73
2021/07/10 03:35:01;;;;;;;1.90;1.58;;;;;;;;;;5056261;28;20053;-73
2021/07/10 03:37:28;;;;;;;2.85;1.95;;;;;;;;;;5058054;28;20064;-74
2021/07/10 03:39:54;;;;;;;2.88;1.60;;;;;;;;;;5058397;28;20063;-72
2021/07/10 03:42:21;;;;;;;3.13;1.80;;;;;;;;;;5058930;28;20067;-74
2021/07/10 03:44:47;;;;;;;3.88;1.63;;;;;;;;;;5064657;28;20342;-73
2021/07/10 03:47:15;;;;;;;4.85;1.73;;;;;;;;;;5066940;28;20056;-73
2021/07/10 03:49:41;;;;;;;2.58;1.83;;;;;;;;;;5047372;28;20064;-72
2021/07/10 03:52:07;;;;;;;2.58;1.50;;;;;;;;;;5064193;28;20486;-73
2021/07/10 03:54:34;;;;;;;3.47;1.70;;;;;;;;;;5042657;28;20575;-74
2021/07/10 03:57:00;;;;;;;2.55;1.70;;;;;;;;;;5060970;28;20060;-73
2021/07/10 03:59:27;;;;;;;2.40;1.80;;;;;;;;;;5067658;28;20094;-73
2021/07/10 04:01:53;;;;;;;2.92;1.95;;;;;;;;;;5053274;28;20052;-73
2021/07/10 04:04:19;;;;;;;4.10;2.00;;;;;;;;;;5056939;28;20083;-73
2021/07/10 04:06:46;;;;;;;2.08;1.65;;;;;;;;;;5057431;28;20080;-73
2021/07/10 04:09:12;;;;;;;2.33;2.00;;;;;;;;;;5051861;28;20140;-73
2021/07/10 04:11:39;;;;;;;3.15;1.83;;;;;;;;;;5063077;28;20114;-72
2021/07/10 04:14:05;;;;;;;2.50;1.70;;;;;;;;;;5061060;28;20118;-72
2021/07/10 04:16:31;;;;;;;2.28;1.90;;;;;;;;;;5056174;28;20494;-73
2021/07/10 04:18:58;;;;;;;2.50;1.70;;;;;;;;;;5056897;28;20150;-73
2021/07/10 04:21:24;;;;;;;3.45;1.80;;;;;;;;;;5052876;28;20077;-73
2021/07/10 04:23:51;;;;;;;3.00;1.80;;;;;;;;;;5060513;28;21220;-73
2021/07/10 04:26:17;;;;;;;2.88;1.50;;;;;;;;;;5051489;28;20060;-72
2021/07/10 04:28:44;;;;;;;2.92;1.77;;;;;;;;;;5054043;28;20416;-73
2021/07/10 04:31:10;;;;;;;2.63;1.92;;;;;;;;;;5061849;28;20060;-72
2021/07/10 04:33:38;;;;;;;2.42;1.88;;;;;;;;;;5063645;28;20063;-73
2021/07/10 04:36:04;;;;;;;2.10;1.80;;;;;;;;;;5062309;28;20076;-73
2021/07/10 04:38:31;;;;;;;2.63;1.58;;;;;;;;;;5057014;28;20056;-73
2021/07/10 04:40:57;;;;;;;2.00;1.65;;;;;;;;;;5058899;28;20304;-72
2021/07/10 04:43:24;;;;;;;2.72;1.75;;;;;;;;;;5064820;28;20052;-72
2021/07/10 04:45:50;;;;;;;1.90;1.60;;;;;;;;;;5064630;28;20060;-73
2021/07/10 04:48:17;;;;;;;5.18;2.08;;;;;;;;;;5042662;28;20052;-72
2021/07/10 04:50:43;;;;;;;2.97;1.67;;;;;;;;;;5058900;28;20056;-73
2021/07/10 04:53:09;;;;;;;3.20;1.98;;;;;;;;;;5052756;28;20129;-73
2021/07/10 04:55:36;;;;;;;2.55;1.83;;;;;;;;;;5059565;28;20060;-73
2021/07/10 04:58:02;;;;;;;2.80;2.13;;;;;;;;;;5062998;28;20124;-73
2021/07/10 05:00:29;;;;;;;3.20;2.08;;;;;;;;;;5060924;28;20060;-73
2021/07/10 05:02:55;;;;;;;3.35;2.00;;;;;;;;;;5059633;28;20514;-73
2021/07/10 05:05:22;;;;;;;2.72;1.88;;;;;;;;;;5058550;28;20060;-74
2021/07/10 05:07:48;;;;;;;2.95;2.00;;;;;;;;;;5042663;28;20068;-73
2021/07/10 05:10:16;;;;;;;3.35;1.90;;;;;;;;;;5052641;28;20573;-73
2021/07/10 05:12:42;;;;;;;2.53;1.92;;;;;;;;;;5060179;28;20056;-73
2021/07/10 05:15:09;;;;;;;1.92;1.73;;;;;;;;;;5054176;28;20076;-72
2021/07/10 05:17:35;;;;;;;3.58;1.90;;;;;;;;;;5056671;28;20567;-72
2021/07/10 05:20:02;;;;;;;2.88;1.92;;;;;;;;;;5061942;28;20123;-72
2021/07/10 05:22:29;;;;;;;2.10;1.58;;;;;;;;;;5060586;28;20052;-73
2021/07/10 05:24:55;;;;;;;3.60;1.90;;;;;;;;;;5058092;28;20069;-72
2021/07/10 05:27:21;;;;;;;2.35;1.90;;;;;;;;;;5053750;28;20052;-73
2021/07/10 05:29:48;;;;;;;4.53;1.92;;;;;;;;;;5055928;28;20111;-72
2021/07/10 05:32:15;;;;;;;2.53;2.00;;;;;;;;;;5041914;28;20053;-72
2021/07/10 05:34:42;;;;;;;3.33;1.50;;;;;;;;;;5044245;28;20056;-75
2021/07/10 05:37:09;;;;;;;3.58;1.70;;;;;;;;;;5050778;28;20063;-73
2021/07/10 05:39:35;;;;;;;3.78;1.92;;;;;;;;;;5050743;28;20068;-74
2021/07/10 05:42:02;;;;;;;3.15;1.90;;;;;;;;;;5035568;28;20063;-75
2021/07/10 05:44:28;;;;;;;3.03;1.90;;;;;;;;;;5058825;28;20499;-74
2021/07/10 05:46:54;;;;;;;2.28;1.90;;;;;;;;;;5056419;28;20083;-74
2021/07/10 05:49:21;;;;;;;4.68;1.92;;;;;;;;;;5050376;28;20048;-74
2021/07/10 05:51:48;;;;;;;2.15;1.75;;;;;;;;;;5050329;28;20060;-75
2021/07/10 05:54:14;;;;;;;4.53;1.90;;;;;;;;;;5057082;28;20069;-74
2021/07/10 05:56:41;;;;;;;2.95;1.70;;;;;;;;;;5053962;28;20091;-75
2021/07/10 05:59:08;;;;;;;4.05;1.90;;;;;;;;;;5059951;28;20056;-74
2021/07/10 06:01:34;;;;;;;2.35;1.83;;;;;;;;;;5053476;28;20060;-75
2021/07/10 06:04:01;;;;;;;3.28;2.05;;;;;;;;;;5052608;28;20064;-75
2021/07/10 06:06:28;;;;;;;3.55;1.95;;;;;;;;;;5061830;28;20067;-74
2021/07/10 06:08:54;;;;;;;3.15;2.10;;;;;;;;;;5060724;28;20492;-75
2021/07/10 06:11:20;;;;;;;2.33;1.85;;;;;;;;;;5059264;28;20060;-74
2021/07/10 06:13:47;;;;;;;3.80;2.10;;;;;;;;;;5058890;28;20501;-75
2021/07/10 06:16:15;;;;;;;4.90;2.05;;;;;;;;;;5057422;28;20064;-75
2021/07/10 06:18:42;;;;;;;3.55;2.10;;;;;;;;;;5055753;28;20052;-75
2021/07/10 06:21:08;;;;;;;3.60;2.08;;;;;;;;;;5053291;28;20157;-75
2021/07/10 06:23:34;;;;;;;2.80;2.05;;;;;;;;;;5052000;28;20067;-75
2021/07/10 06:26:01;;;;;;;2.92;1.90;;;;;;;;;;5057993;28;20129;-75
2021/07/10 06:28:27;;;;;;;2.95;1.95;;;;;;;;;;5059580;28;20060;-76
2021/07/10 06:30:56;;;;;;;3.33;2.28;;;;;;;;;;5036406;28;20096;-75
2021/07/10 06:33:22;;;;;;;3.47;2.05;;;;;;;;;;5053462;28;20052;-76
2021/07/10 06:35:49;;;;;;;3.75;2.10;;;;;;;;;;5051131;28;20764;-75
2021/07/10 06:38:15;;;;;;;4.15;2.15;;;;;;;;;;5057214;28;20061;-75
2021/07/10 06:40:42;;;;;;;3.05;2.55;;;;;;;;;;5056352;28;20484;-76
2021/07/10 06:43:08;;;;;;;4.13;2.20;;;;;;;;;;5057308;28;20033;-74
2021/07/10 06:45:34;;;;;;;2.72;1.90;;;;;;;;;;5054157;28;20075;-74
2021/07/10 06:48:01;;;;;;;3.97;2.10;;;;;;;;;;5055655;28;20061;-75
2021/07/10 06:50:29;;;;;;;3.83;2.38;;;;;;;;;;5060413;28;20621;-74
2021/07/10 06:52:56;;;;;;;5.25;2.55;;;;;;;;;;5057063;28;20521;-76
2021/07/10 06:55:22;;;;;;;2.63;2.35;;;;;;;;;;5052534;28;20045;-74
2021/07/10 06:57:48;;;;;;;3.25;2.25;;;;;;;;;;5056977;28;20056;-76
2021/07/10 07:00:17;;;;;;;2.47;2.17;;;;;;;;;;5057209;28;20444;-74
2021/07/10 07:02:44;;;;;;;3.40;2.10;;;;;;;;;;5057230;28;20491;-76
2021/07/10 07:05:11;;;;;;;3.75;2.67;;;;;;;;;;5054774;28;20118;-75
2021/07/10 07:07:38;;;;;;;2.72;2.33;;;;;;;;;;5051259;28;20063;-76
2021/07/10 07:10:06;;;;;;;2.72;2.15;;;;;;;;;;5052447;28;20064;-75
2021/07/10 07:12:33;;;;;;;4.22;2.20;;;;;;;;;;5059487;28;20057;-75
2021/07/10 07:14:59;;;;;;;3.42;2.38;;;;;;;;;;5053846;28;20052;-76
2021/07/10 07:17:26;;;;;;;3.30;2.42;;;;;;;;;;5054929;28;20047;-75
2021/07/10 07:19:52;;;;;;;3.45;2.33;;;;;;;;;;5051799;28;20060;-75
2021/07/10 07:22:19;;;;;;;3.03;2.10;;;;;;;;;;5059376;28;20055;-74
2021/07/10 07:24:46;;;;;;;3.85;2.20;;;;;;;;;;5050368;28;20079;-74
2021/07/10 07:27:12;;;;;;;2.45;2.20;;;;;;;;;;5062899;28;20064;-74
2021/07/10 07:29:39;;;;;;;2.85;2.28;;;;;;;;;;5052003;28;20110;-73
2021/07/10 07:32:06;;;;;;;5.15;2.28;;;;;;;;;;5051520;28;20102;-75
2021/07/10 07:34:32;;;;;;;3.80;2.22;;;;;;;;;;5057498;28;20032;-75
2021/07/10 07:36:59;;;;;;;3.40;2.20;;;;;;;;;;5064637;28;20448;-75
2021/07/10 07:39:25;;;;;;;3.40;2.20;;;;;;;;;;5036950;28;20122;-75
2021/07/10 07:41:51;;;;;;;2.95;2.30;;;;;;;;;;5038963;28;20064;-75
2021/07/10 07:44:18;;;;;;;3.92;2.08;;;;;;;;;;5056960;28;20060;-74
2021/07/10 07:46:45;;;;;;;2.30;1.70;;;;;;;;;;5056555;28;20594;-75
2021/07/10 07:49:11;;;;;;;3.35;2.17;;;;;;;;;;5054748;28;20086;-74
2021/07/10 07:51:38;;;;;;;4.43;1.98;;;;;;;;;;5054549;28;20083;-75
2021/07/10 07:54:04;;;;;;;2.58;1.90;;;;;;;;;;5058165;28;20483;-75
2021/07/10 07:56:30;;;;;;;3.80;2.17;;;;;;;;;;5053590;28;20122;-75
2021/07/10 07:58:57;;;;;;;3.58;2.03;;;;;;;;;;5050569;28;20293;-75
2021/07/10 08:01:23;;;;;;;6.47;2.08;;;;;;;;;;5053879;28;20068;-75
2021/07/10 08:03:50;;;;;;;3.03;1.92;;;;;;;;;;5056742;28;20507;-75
2021/07/10 08:06:16;;;;;;;4.28;2.15;;;;;;;;;;5051651;28;20087;-75
2021/07/10 08:08:43;;;;;;;4.07;2.10;;;;;;;;;;5052553;28;20052;-75
2021/07/10 08:11:10;;;;;;;3.30;2.00;;;;;;;;;;5065014;28;20523;-75
2021/07/10 08:13:37;;;;;;;3.42;1.40;;;;;;;;;;5059820;28;20056;-76
2021/07/10 08:16:04;;;;;;;2.75;1.60;;;;;;;;;;5056754;28;20061;-76
2021/07/10 08:18:31;;;;;;;2.65;1.80;;;;;;;;;;5059989;28;20056;-73
2021/07/10 08:20:57;;;;;;;2.97;1.90;;;;;;;;;;5062632;28;20528;-73
2021/07/10 08:23:24;;;;;;;3.63;2.10;;;;;;;;;;5055220;28;20067;-72
2021/07/10 08:25:50;;;;;;;3.53;1.90;;;;;;;;;;5048535;28;20080;-73
2021/07/10 08:28:16;;;;;;;4.45;2.00;;;;;;;;;;5050173;28;20052;-72
2021/07/10 08:30:43;;;;;;;3.88;2.00;;;;;;;;;;5054707;28;20056;-74
2021/07/10 08:33:09;;;;;;;3.13;1.98;;;;;;;;;;5053957;28;20037;-72
2021/07/10 08:35:36;;;;;;;3.63;1.70;;;;;;;;;;5062161;28;20462;-73
2021/07/10 08:38:02;;;;;;;7.35;1.90;;;;;;;;;;5059417;28;20060;-72
2021/07/10 08:40:28;;;;;;;3.30;1.80;;;;;;;;;;5066313;28;20059;-72
2021/07/10 08:42:55;;;;;;;6.10;2.10;;;;;;;;;;5059201;28;20056;-74
2021/07/10 08:45:22;;;;;;;6.18;1.90;;;;;;;;;;5056702;28;20476;-74
2021/07/10 08:47:48;;;;;;;5.30;1.70;;;;;;;;;;5051480;28;20056;-73
2021/07/10 08:50:19;;;;;;;2.80;1.70;;;;;;;;;;5060326;28;20513;-75
2021/07/10 08:52:46;;;;;;;5.63;1.90;;;;;;;;;;5053338;28;20118;-74
2021/07/10 08:55:14;;;;;;;3.38;1.88;;;;;;;;;;5053419;28;20049;-73
2021/07/10 08:57:40;;;;;;;6.03;1.88;;;;;;;;;;5058194;28;20071;-73
2021/07/10 09:00:09;;;;;;;3.83;2.30;;;;;;;;;;5058073;28;20060;-73
2021/07/10 09:02:36;;;;;;;3.22;1.90;;;;;;;;;;5035797;28;20052;-73
2021/07/10 09:05:04;;;;;;;4.28;1.70;;;;;;;;;;5052377;28;20060;-72
2021/07/10 09:07:30;;;;;;;5.95;1.48;;;;;;;;;;5058475;28;20056;-73
2021/07/10 09:09:57;;;;;;;3.78;1.50;;;;;;;;;;5050173;28;20064;-74
2021/07/10 09:12:28;;;;;;;5.30;1.60;;;;;;;;;;5054282;28;20044;-74
2021/07/10 09:14:54;;;;;;;6.70;1.50;;;;;;;;;;5053988;28;20096;-72
2021/07/10 09:17:23;;;;;;;3.80;1.55;;;;;;;;;;5052920;28;20102;-74
2021/07/10 09:19:52;;;;;;;2.20;1.48;;;;;;;;;;5048305;28;20052;-73
2021/07/10 09:22:30;;;;;;;4.90;1.67;;;;;;;;;;5053425;28;20098;-73
2021/07/10 09:24:58;;;;;;;2.40;1.30;;;;;;;;;;5052001;28;20060;-73
2021/07/10 09:27:24;;;;;;;4.03;1.55;;;;;;;;;;5061021;28;20094;-72
2021/07/10 09:29:51;;;;;;;4.07;1.50;;;;;;;;;;5066217;28;20078;-73
2021/07/10 09:32:19;;;;;;;4.82;1.70;;;;;;;;;;5061908;28;20745;-73
2021/07/10 09:34:48;;;;;;;3.22;1.50;;;;;;;;;;5050995;28;20553;-73
2021/07/10 09:37:14;;;;;;;2.95;1.50;;;;;;;;;;5053295;28;20076;-73
2021/07/10 09:39:46;;;;;;;6.55;1.48;;;;;;;;;;5034842;28;20070;-73
2021/07/10 09:42:16;;;;;;;5.10;1.60;;;;;;;;;;5056132;28;20061;-73
2021/07/10 09:44:50;;;;;;;3.53;1.40;;;;;;;;;;5054453;28;20060;-73
2021/07/10 09:47:18;;;;;;;2.80;1.17;;;;;;;;;;5055286;28;20060;-74
2021/07/10 09:49:45;;;;;;;2.53;1.10;;;;;;;;;;5054949;28;20052;-76
2021/07/10 09:52:16;;;;;;;1.42;0.90;;;;;;;;;;5052211;28;20067;-77
2021/07/10 09:54:43;;;;;;;2.08;0.90;;;;;;;;;;5053133;28;20060;-76
2021/07/10 09:57:12;;;;;;;3.28;1.13;;;;;;;;;;5055901;28;20460;-76
2021/07/10 09:59:43;;;;;;;2.22;1.10;;;;;;;;;;5051634;28;20110;-77
2021/07/10 10:02:14;;;;;;;2.70;1.02;;;;;;;;;;5056515;28;20051;-77
2021/07/10 10:04:40;;;;;;;2.17;1.02;;;;;;;;;;5032079;28;20537;-77
2021/07/10 10:07:10;;;;;;;1.70;0.98;;;;;;;;;;5049492;28;20420;-77
2021/07/10 10:09:36;;;;;;;2.17;0.90;;;;;;;;;;5043033;28;20561;-76
2021/07/10 10:12:03;;;;;;;2.60;1.10;;;;;;;;;;5058312;28;20609;-77
2021/07/10 10:14:30;;;;;;;1.38;0.90;;;;;;;;;;5058116;28;20052;-79
2021/07/10 10:16:57;;;;;;;2.33;1.08;;;;;;;;;;5043226;28;20079;-76
2021/07/10 10:19:25;;;;;;;2.35;1.02;;;;;;;;;;5044291;28;20121;-75
2021/07/10 10:21:53;;;;;;;1.50;0.90;;;;;;;;;;5056960;28;20512;-76
2021/07/10 10:24:20;;;;;;;2.28;1.15;;;;;;;;;;5058932;28;20469;-76
2021/07/10 10:26:47;;;;;;;1.48;0.98;;;;;;;;;;5054556;28;20118;-76
2021/07/10 10:29:14;;;;;;;2.25;1.02;;;;;;;;;;5063568;28;20547;-76
2021/07/10 10:31:41;;;;;;;2.28;0.90;;;;;;;;;;5058892;28;20375;-76
2021/07/10 10:34:08;;;;;;;2.72;1.05;;;;;;;;;;5057964;28;20056;-76
2021/07/10 10:36:35;;;;;;;2.72;1.25;;;;;;;;;;5028736;28;20036;-77
2021/07/10 10:39:03;;;;;;;4.07;1.25;;;;;;;;;;5061707;28;20071;-76
2021/07/10 10:41:30;;;;;;;2.42;0.95;;;;;;;;;;5061414;28;20048;-74
2021/07/10 10:43:57;;;;;;;3.20;1.30;;;;;;;;;;5056381;28;20074;-77
2021/07/10 10:46:23;;;;;;;3.00;1.13;;;;;;;;;;5051265;28;20565;-77
2021/07/10 10:48:51;;;;;;;3.05;1.13;;;;;;;;;;5060235;28;20082;-78
2021/07/10 10:51:26;;;;;;;2.40;1.17;;;;;;;;;;5046893;28;20622;-77
2021/07/10 10:53:54;;;;;;;1.80;1.10;;;;;;;;;;5059338;28;20068;-77
2021/07/10 10:56:34;;;;;;;2.30;1.20;;;;;;;;;;5042970;28;20053;-77
2021/07/10 10:59:00;;;;;;;2.90;1.10;;;;;;;;;;5051081;28;21403;-78
2021/07/10 11:01:33;;;;;;;3.17;1.40;;;;;;;;;;5050226;28;20061;-77
2021/07/10 11:03:59;;;;;;;2.75;1.17;;;;;;;;;;5052909;28;20331;-74
2021/07/10 11:06:30;;;;;;;2.00;1.13;;;;;;;;;;5053223;28;20113;-77
2021/07/10 11:08:58;;;;;;;2.17;1.25;;;;;;;;;;5053254;28;20058;-78
2021/07/10 11:11:28;;;;;;;2.22;1.42;;;;;;;;;;5055693;28;20049;-76
2021/07/10 11:14:08;;;;;;;1.87;1.10;;;;;;;;;;5057113;28;20071;-76
2021/07/10 11:16:35;;;;;;;2.47;1.25;;;;;;;;;;5054110;28;20021;-76
2021/07/10 11:19:08;;;;;;;2.83;1.33;;;;;;;;;;5056557;28;20049;-77
2021/07/10 11:21:35;;;;;;;2.90;1.40;;;;;;;;;;5054231;28;20029;-77
2021/07/10 11:24:17;;;;;;;2.38;1.30;;;;;;;;;;5053902;28;20074;-78
2021/07/10 11:26:44;;;;;;;2.40;1.40;;;;;;;;;;5053613;28;20778;-76
2021/07/10 11:29:21;;;;;;;2.83;1.55;;;;;;;;;;5056710;28;20128;-78
2021/07/10 11:31:48;;;;;;;2.47;1.40;;;;;;;;;;5053367;28;20052;-77
2021/07/10 11:34:19;;;;;;;2.58;1.40;;;;;;;;;;5062328;28;20064;-77
2021/07/10 11:36:46;;;;;;;2.38;1.25;;;;;;;;;;5039501;28;20056;-77
2021/07/10 11:39:32;;;;;;;4.20;1.20;;;;;;;;;;5054451;28;20061;-77
2021/07/10 11:42:00;;;;;;;2.75;1.27;;;;;;;;;;5053250;28;20114;-74
2021/07/10 11:44:27;;;;;;;1.90;1.10;;;;;;;;;;5059032;28;20503;-74
2021/07/10 11:46:58;;;;;;;2.03;1.08;;;;;;;;;;5054223;28;20056;-75
2021/07/10 11:49:36;;;;;;;2.15;1.15;;;;;;;;;;5065547;28;20064;-73
2021/07/10 11:52:04;;;;;;;3.72;1.10;;;;;;;;;;5052384;28;20368;-74
2021/07/10 11:54:30;;;;;;;2.08;1.17;;;;;;;;;;5053384;28;20057;-74
2021/07/10 11:56:57;;;;;;;2.65;1.35;;;;;;;;;;5057988;28;20069;-74
2021/07/10 11:59:23;;;;;;;1.98;1.10;;;;;;;;;;5061690;28;20659;-75
2021/07/10 12:01:50;;;;;;;3.90;1.40;;;;;;;;;;5058040;28;20052;-74
2021/07/10 12:04:17;;;;;;;3.13;1.40;;;;;;;;;;5061940;28;20364;-74
2021/07/10 12:06:43;;;;;;;2.53;1.20;;;;;;;;;;5061661;28;20134;-74
2021/07/10 12:09:09;;;;;;;3.70;1.30;;;;;;;;;;5051552;28;20126;-74
2021/07/10 12:11:36;;;;;;;2.22;1.20;;;;;;;;;;5049981;28;20056;-74
2021/07/10 12:14:06;;;;;;;3.47;1.13;;;;;;;;;;5059291;28;20446;-74
2021/07/10 12:16:33;;;;;;;4.65;1.33;;;;;;;;;;5054774;28;20052;-74
2021/07/10 12:19:00;;;;;;;3.15;1.20;;;;;;;;;;5054134;28;21270;-74
2021/07/10 12:21:26;;;;;;;1.80;1.20;;;;;;;;;;5054223;28;20122;-74
2021/07/10 12:23:56;;;;;;;2.33;1.20;;;;;;;;;;5040159;28;20554;-74
2021/07/10 12:26:24;;;;;;;2.83;1.60;;;;;;;;;;5036101;28;20086;-73
2021/07/10 12:28:54;;;;;;;2.47;1.30;;;;;;;;;;5064544;28;20457;-73
2021/07/10 12:31:27;;;;;;;3.05;1.50;;;;;;;;;;5052377;28;20059;-74
2021/07/10 12:34:00;;;;;;;2.22;1.40;;;;;;;;;;5059712;28;20150;-74
2021/07/10 12:36:29;;;;;;;2.38;1.30;;;;;;;;;;5055475;28;20057;-74
2021/07/10 12:39:00;;;;;;;3.28;1.48;;;;;;;;;;5060251;28;20037;-74
2021/07/10 12:41:29;;;;;;;1.90;1.40;;;;;;;;;;5054997;28;20645;-75
2021/07/10 12:44:06;;;;;;;3.17;1.50;;;;;;;;;;5056118;28;20125;-76
2021/07/10 12:46:53;;;;;;;5.88;1.65;;;;;;;;;;5054296;28;20057;-74
2021/07/10 12:49:20;;;;;;;3.30;1.67;;;;;;;;;;5049739;28;20367;-74
2021/07/10 12:51:46;;;;;;;3.47;1.45;;;;;;;;;;5050019;28;20079;-74
2021/07/10 12:54:28;;;;;;;2.58;1.50;;;;;;;;;;5036376;28;20043;-74
2021/07/10 12:56:58;;;;;;;2.65;1.60;;;;;;;;;;5055549;28;20052;-74
2021/07/10 12:59:26;;;;;;;2.97;1.58;;;;;;;;;;5060330;28;20060;-74
2021/07/10 13:01:52;;;;;;;3.75;2.03;;;;;;;;;;5047038;28;20520;-73
2021/07/10 13:04:20;;;;;;;4.60;1.80;;;;;;;;;;5057792;28;20084;-73
2021/07/10 13:06:46;;;;;;;4.40;1.60;;;;;;;;;;5061342;28;20060;-72
2021/07/10 13:09:13;;;;;;;3.15;1.63;;;;;;;;;;5053711;28;20517;-73
2021/07/10 13:11:46;;;;;;;2.25;1.45;;;;;;;;;;5063375;28;20553;-74
2021/07/10 13:14:23;;;;;;;4.88;1.45;;;;;;;;;;5057996;28;20090;-74
2021/07/10 13:16:50;;;;;;;3.42;1.45;;;;;;;;;;5054823;28;20433;-73
2021/07/10 13:19:17;;;;;;;4.45;1.90;;;;;;;;;;5058205;28;20541;-73
2021/07/10 13:21:43;;;;;;;2.92;1.38;;;;;;;;;;5051844;28;20064;-73
2021/07/10 13:24:13;;;;;;;2.47;1.60;;;;;;;;;;5061709;28;20137;-73
2021/07/10 13:26:41;;;;;;;3.53;1.85;;;;;;;;;;5045757;28;20519;-74
2021/07/10 13:29:13;;;;;;;4.50;1.50;;;;;;;;;;5054636;28;20512;-72
2021/07/10 13:31:41;;;;;;;2.95;1.55;;;;;;;;;;5054244;28;20057;-75
2021/07/10 13:34:08;;;;;;;4.40;1.75;;;;;;;;;;5057653;28;20114;-74
2021/07/10 13:36:39;;;;;;;3.10;1.63;;;;;;;;;;5058251;28;20655;-74
2021/07/10 13:39:09;;;;;;;3.17;1.70;;;;;;;;;;5057966;28;20052;-75
2021/07/10 13:41:51;;;;;;;2.90;1.70;;;;;;;;;;5060296;28;21066;-77
2021/07/10 13:44:21;;;;;;;2.97;1.90;;;;;;;;;;5060342;28;20153;-77
2021/07/10 13:46:55;;;;;;;5.13;1.77;;;;;;;;;;5058644;28;20068;-77
2021/07/10 13:49:27;;;;;;;4.15;1.70;;;;;;;;;;5061353;28;20044;-77
2021/07/10 13:51:55;;;;;;;2.63;1.55;;;;;;;;;;5037806;28;20041;-76
2021/07/10 13:54:32;;;;;;;3.30;1.90;;;;;;;;;;5061706;28;20052;-76
2021/07/10 13:57:07;;;;;;;2.92;1.70;;;;;;;;;;5056664;28;20798;-76
2021/07/10 13:59:34;;;;;;;3.05;1.50;;;;;;;;;;5027091;28;20179;-76
2021/07/10 14:02:00;;;;;;;2.22;1.50;;;;;;;;;;5051705;28;20508;-76
2021/07/10 14:04:26;;;;;;;2.60;1.50;;;;;;;;;;5054185;28;20053;-76
2021/07/10 14:06:53;;;;;;;2.35;1.65;;;;;;;;;;5052558;28;20110;-75
2021/07/10 14:09:19;;;;;;;3.45;1.60;;;;;;;;;;5050316;28;20555;-78
2021/07/10 14:11:46;;;;;;;4.78;1.60;;;;;;;;;;5054281;28;20064;-77
2021/07/10 14:14:12;;;;;;;2.58;1.90;;;;;;;;;;5052075;28;20037;-77
2021/07/10 14:16:38;;;;;;;2.65;1.73;;;;;;;;;;5052663;28;20060;-77
2021/07/10 14:19:05;;;;;;;3.17;1.80;;;;;;;;;;5050587;28;20060;-76
2021/07/10 14:21:31;;;;;;;3.05;2.08;;;;;;;;;;5057114;28;20056;-77
2021/07/10 14:23:59;;;;;;;2.33;1.80;;;;;;;;;;5055515;28;20065;-77
2021/07/10 14:26:25;;;;;;;3.38;1.80;;;;;;;;;;5054542;28;20060;-77
2021/07/10 14:28:52;;;;;;;3.17;1.90;;;;;;;;;;5053150;28;20442;-77
2021/07/10 14:31:18;;;;;;;2.38;1.70;;;;;;;;;;5053899;28;20048;-77
2021/07/10 14:33:44;;;;;;;3.35;2.30;;;;;;;;;;5053307;28;20094;-76
2021/07/10 14:36:11;;;;;;;3.50;2.05;;;;;;;;;;5057879;28;20056;-74
2021/07/10 14:38:40;;;;;;;3.22;2.03;;;;;;;;;;5042354;28;20059;-75
2021/07/10 14:41:08;;;;;;;3.60;2.00;;;;;;;;;;5057851;28;20061;-75
2021/07/10 14:43:35;;;;;;;6.63;2.50;;;;;;;;;;5059843;28;20041;-76
2021/07/10 14:46:01;;;;;;;5.32;2.20;;;;;;;;;;5066193;28;20056;-74